Anastasia Island, Florida
Current Conditions -  °F | °C
As of 6:58 PM on Sunday 21 Dec 2014 (Local Time) from KSGJ Reporting Station
Broken Clouds Broken Clouds  
Wind Chill: 63°   Ceiling: 7000
Heat Index: 63°   Visibility: 10mi
Dew Point: 61°   Wind: 6mph
Humidity: 93%   Direction: 340°NNW
Pressure: 30.06"   Gusts: NA
Location:  29.8475°N, 81.2787°W
Report Text: KSGJ 212358Z 34005KT 10SM SCT036 SCT050 BKN070 17/16 A3006 RMK AO2 SLP178 60000 T01720161 10189 20172 51004
Loading
Personal Weather Stations






























Interactive Weather Map New forecast layout! Learn more

10-Day Weather Forecast

Advertisements
Track Severe Weather on mobile